Thamesteel1 — V7OI7 — position and weather

sailwx.info

Track history (hours):
 
Tides and Currents Weather Stations Pressure Air Temp Water Temp Dewpoint Dewpoint Depression Visibility Wind Speed Wind Dir Waves Ship Positions

Thamesteel1

Last reported at 2017-Jun-08 10:16 UTC. Time now 2017-Jun-24 12:08 UTC.
Position N 31°26' E 121°30'.
Warning: this ship's position is 16 days out of date.

Length 89 m; draft 4.8 m.

Type: Cargo ship. MMSI: 538003096.

Date/timePositionNaut miles runAvg speedWind from/ knotsBaromVisibWave heightAir tempDewpointWater temp
2017-Jun-08 10:16N 31°26' E 121°30'2 5.8
2017-Jun-08 10:00N 31°27' E 121°28'510.4
2017-Jun-08 09:30N 31°31' E 121°24'611.8
2017-Jun-08 09:00N 31°34' E 121°18'4 7.4
2017-Jun-08 08:30N 31°37' E 121°16'0 0.1
2017-Jun-08 07:59N 31°37' E 121°16'0 0.2
2017-Jun-08 07:20N 31°38' E 121°16'0 0.3
2017-Jun-08 06:50N 31°38' E 121°16'0 1.0
2017-Jun-08 06:30N 31°38' E 121°16'510.2
2017-Jun-08 06:00N 31°41' E 121°11'5 9.6
2017-Jun-08 05:30N 31°44' E 121°06'610.2
2017-Jun-08 04:56N 31°47' E 121°00'4 8.2
2017-Jun-08 04:27N 31°47' E 120°56'5 9.4
2017-Jun-08 03:57N 31°52' E 120°53'1810.6
2017-Jun-08 02:15N 32°00' E 120°35'312.2
2017-Jun-08 02:01N 32°01' E 120°32'4 8.0
2017-Jun-08 01:30N 31°60' E 120°27'1 2.1
2017-Jun-08 00:59N 31°59' E 120°27'0 0.0
2017-Jun-08 00:29N 31°59' E 120°27'0 0.0
2017-Jun-07 23:59N 31°59' E 120°27'0 0.0
2017-Jun-07 23:29N 31°59' E 120°27'0 0.0
2017-Jun-07 22:59N 31°59' E 120°27'0 0.0
2017-Jun-07 22:29N 31°59' E 120°27'0 0.0
2017-Jun-07 21:59N 31°59' E 120°27'0 0.0
2017-Jun-07 21:26N 31°59' E 120°27'0 0.0
2017-Jun-07 20:56N 31°59' E 120°27'0 0.0
2017-Jun-07 20:26N 31°59' E 120°27'0 0.0
2017-Jun-07 19:59N 31°59' E 120°27'0 0.0
2017-Jun-07 19:29N 31°59' E 120°27'0 0.0
2017-Jun-07 18:59N 31°59' E 120°27'0 0.0
2017-Jun-07 18:26N 31°59' E 120°27'0 0.0
2017-Jun-07 17:53N 31°59' E 120°27'0 0.0
2017-Jun-07 17:29N 31°59' E 120°27'0 0.0
2017-Jun-07 16:56N 31°59' E 120°27'0 0.0
2017-Jun-07 16:26N 31°59' E 120°27'0 0.0
2017-Jun-07 15:56N 31°59' E 120°27'0 0.0
2017-Jun-07 15:26N 31°59' E 120°27'0 0.0
2017-Jun-07 14:59N 31°59' E 120°27'0 0.0
2017-Jun-07 13:56N 31°59' E 120°27'0 0.0
2017-Jun-07 13:29N 31°59' E 120°27'0 0.0
2017-Jun-07 12:59N 31°59' E 120°27'0 0.0
2017-Jun-07 12:29N 31°59' E 120°27'0 0.0
2017-Jun-07 11:59N 31°59' E 120°27'0 0.0
2017-Jun-07 11:26N 31°59' E 120°27'0 0.0
2017-Jun-07 10:59N 31°59' E 120°27'0 0.0
2017-Jun-07 10:29N 31°59' E 120°27'0 0.0
2017-Jun-07 09:56N 31°59' E 120°27'0 0.0
2017-Jun-07 09:26N 31°59' E 120°27'0 0.0
2017-Jun-07 08:59N 31°59' E 120°27'0 0.0
2017-Jun-07 08:26N 31°59' E 120°27'0 0.0
2017-Jun-07 07:59N 31°59' E 120°27'0 0.0
2017-Jun-07 07:26N 31°59' E 120°27'0 0.0
2017-Jun-07 06:59N 31°59' E 120°27'0 0.0
2017-Jun-07 06:23N 31°59' E 120°27'0 0.0
2017-Jun-07 05:56N 31°59' E 120°27'0 0.0
2017-Jun-07 05:29N 31°59' E 120°27'0 0.0
2017-Jun-07 04:59N 31°59' E 120°27'0 0.0
2017-Jun-07 04:26N 31°59' E 120°27'0 0.0
2017-Jun-07 03:59N 31°59' E 120°27'0 0.0
2017-Jun-07 03:29N 31°59' E 120°27'0 0.0
2017-Jun-07 02:59N 31°59' E 120°27'0 0.0
2017-Jun-07 02:29N 31°59' E 120°27'0 0.0
2017-Jun-07 01:59N 31°59' E 120°27'0 0.0
2017-Jun-07 01:29N 31°59' E 120°27'0 0.0
2017-Jun-07 00:59N 31°59' E 120°27'0 0.0
2017-Jun-07 00:26N 31°59' E 120°27'0 0.0
2017-Jun-06 23:56N 31°59' E 120°27'0 0.0
2017-Jun-06 23:26N 31°59' E 120°27'0 0.0
2017-Jun-06 22:56N 31°59' E 120°27'0 0.0
2017-Jun-06 22:29N 31°59' E 120°27'0 0.0
2017-Jun-06 21:59N 31°59' E 120°27'0 0.0
2017-Jun-06 21:29N 31°59' E 120°27'0 0.0
2017-Jun-06 20:59N 31°59' E 120°27'0 0.0
2017-Jun-06 20:29N 31°59' E 120°27'0 0.0
2017-Jun-06 19:59N 31°59' E 120°27'0 0.0
2017-Jun-06 19:29N 31°59' E 120°27'0 0.0
2017-Jun-06 18:59N 31°59' E 120°27'0 0.0
2017-Jun-06 18:29N 31°59' E 120°27'0 0.0
2017-Jun-06 17:59N 31°59' E 120°27'0 0.0
2017-Jun-06 17:29N 31°59' E 120°27'0 0.0
2017-Jun-06 16:59N 31°59' E 120°27'0 0.0
2017-Jun-06 16:29N 31°59' E 120°27'0 0.0
2017-Jun-06 15:59N 31°59' E 120°27'0 0.0
2017-Jun-06 15:29N 31°59' E 120°27'0 0.0
2017-Jun-06 14:59N 31°59' E 120°27'0 0.0
2017-Jun-06 14:20N 31°59' E 120°27'0 0.0
2017-Jun-06 13:29N 31°59' E 120°27'0 0.0
2017-Jun-06 12:59N 31°59' E 120°27'0 0.0
2017-Jun-06 12:29N 31°59' E 120°27'0 0.0
2017-Jun-06 11:59N 31°59' E 120°27'0 0.0
2017-Jun-06 11:29N 31°59' E 120°27'0 0.0
2017-Jun-06 10:59N 31°59' E 120°27'0 0.0
2017-Jun-06 10:29N 31°59' E 120°27'0 0.0
2017-Jun-06 09:59N 31°59' E 120°27'0 0.0
2017-Jun-06 09:29N 31°59' E 120°27'0 0.0
2017-Jun-06 08:59N 31°59' E 120°27'0 0.0
2017-Jun-06 08:26N 31°59' E 120°27'0 0.0
2017-Jun-06 07:59N 31°59' E 120°27'0 0.0
2017-Jun-06 07:29N 31°59' E 120°27'0 0.0
2017-Jun-06 06:59N 31°59' E 120°27'0 0.0
2017-Jun-06 06:26N 31°59' E 120°27'0 0.0
2017-Jun-06 05:59N 31°59' E 120°27'0 0.0
2017-Jun-06 05:26N 31°59' E 120°27'0 0.0
2017-Jun-06 04:59N 31°59' E 120°27'0 0.0
2017-Jun-06 04:29N 31°59' E 120°27'0 0.0
2017-Jun-06 03:59N 31°59' E 120°27'0 0.0
2017-Jun-06 03:29N 31°59' E 120°27'0 0.0
2017-Jun-06 02:59N 31°59' E 120°27'0 0.0
2017-Jun-06 02:29N 31°59' E 120°27'0 0.0
2017-Jun-06 01:59N 31°59' E 120°27'0 0.0
2017-Jun-06 01:29N 31°59' E 120°27'0 0.0
2017-Jun-06 00:59N 31°59' E 120°27'0 0.0
2017-Jun-06 00:29N 31°59' E 120°27'0 0.0
2017-Jun-05 23:59N 31°59' E 120°27'0 0.0
2017-Jun-05 23:29N 31°59' E 120°27'0 0.0
2017-Jun-05 22:59N 31°59' E 120°27'0 0.0
2017-Jun-05 22:29N 31°59' E 120°27'0 0.0
2017-Jun-05 21:59N 31°59' E 120°27'0 0.0
2017-Jun-05 21:29N 31°59' E 120°27'0 0.0
2017-Jun-05 20:59N 31°59' E 120°27'0 0.0
2017-Jun-05 20:29N 31°59' E 120°27'0 0.0
2017-Jun-05 19:59N 31°59' E 120°27'0 0.0
2017-Jun-05 19:29N 31°59' E 120°27'0 0.0
2017-Jun-05 18:59N 31°59' E 120°27'0 0.0
2017-Jun-05 18:29N 31°59' E 120°27'0 0.0
2017-Jun-05 17:59N 31°59' E 120°27'0 0.0
2017-Jun-05 17:29N 31°59' E 120°27'0 0.0
2017-Jun-05 16:56N 31°59' E 120°27'0 0.0
2017-Jun-05 16:26N 31°59' E 120°27'0 0.0
2017-Jun-05 15:56N 31°59' E 120°27'0 0.0
2017-Jun-05 15:29N 31°59' E 120°27'0 0.0
2017-Jun-05 14:59N 31°59' E 120°27'0 0.0
2017-Jun-05 14:29N 31°59' E 120°27'0 0.0
2017-Jun-05 13:29N 31°59' E 120°27'0 0.0
2017-Jun-05 12:59N 31°59' E 120°27'0 0.0
2017-Jun-05 12:29N 31°59' E 120°27'0 0.0
2017-Jun-05 11:59N 31°59' E 120°27'0 0.0
2017-Jun-05 11:29N 31°59' E 120°27'0 0.0
2017-Jun-05 10:59N 31°59' E 120°27'0 0.0
2017-Jun-05 10:29N 31°59' E 120°27'0 0.0
2017-Jun-05 09:56N 31°59' E 120°27'0 0.0
2017-Jun-05 09:29N 31°59' E 120°27'0 0.0
2017-Jun-05 08:59N 31°59' E 120°27'0 0.0
2017-Jun-05 08:26N 31°59' E 120°27'0 0.0
2017-Jun-05 07:56N 31°59' E 120°27'0 0.0
2017-Jun-05 07:26N 31°59' E 120°27'0 0.0
2017-Jun-05 06:56N 31°59' E 120°27'0 0.0
2017-Jun-05 06:29N 31°59' E 120°27'0 0.0
2017-Jun-05 05:56N 31°59' E 120°27'0 0.0
2017-Jun-05 05:20N 31°59' E 120°27'0 0.0
2017-Jun-05 04:59N 31°59' E 120°27'0 0.0
2017-Jun-05 04:29N 31°59' E 120°27'0 0.0
2017-Jun-05 03:47N 31°59' E 120°27'0 0.0
2017-Jun-05 03:29N 31°59' E 120°27'0 0.0
2017-Jun-05 02:56N 31°59' E 120°27'0 0.0
2017-Jun-05 02:29N 31°59' E 120°27'0 0.0
2017-Jun-05 01:56N 31°59' E 120°27'0 0.0
2017-Jun-05 01:26N 31°59' E 120°27'0 0.0
2017-Jun-05 00:56N 31°59' E 120°27'0 0.0
2017-Jun-05 00:29N 31°59' E 120°27'0 0.0
2017-Jun-04 23:50N 31°59' E 120°27'0 0.0
2017-Jun-04 23:29N 31°59' E 120°27'0 0.0
2017-Jun-04 22:56N 31°59' E 120°27'0 0.0
2017-Jun-04 22:26N 31°59' E 120°27'0 0.0
2017-Jun-04 21:59N 31°59' E 120°27'0 0.0
2017-Jun-04 21:26N 31°59' E 120°27'0 0.0
2017-Jun-04 20:59N 31°59' E 120°27'0 0.0
2017-Jun-04 20:29N 31°59' E 120°27'0 0.0
2017-Jun-04 19:59N 31°59' E 120°27'0 0.0
2017-Jun-04 19:26N 31°59' E 120°27'0 0.0
2017-Jun-04 18:59N 31°59' E 120°27'0 0.0
2017-Jun-04 18:29N 31°59' E 120°27'0 0.0
2017-Jun-04 17:59N 31°59' E 120°27'0 0.0
2017-Jun-04 17:26N 31°59' E 120°27'0 0.0
2017-Jun-04 16:50N 31°59' E 120°27'0 0.0
2017-Jun-04 16:23N 31°59' E 120°27'0 0.0
2017-Jun-04 15:44N 31°59' E 120°27'0 0.0
2017-Jun-04 15:26N 31°59' E 120°27'0 0.0
2017-Jun-04 14:50N 31°59' E 120°27'0 0.0
2017-Jun-04 13:59N 31°59' E 120°27'0 0.0
2017-Jun-04 13:26N 31°59' E 120°27'0 0.0
2017-Jun-04 12:53N 31°59' E 120°27'0 0.0
2017-Jun-04 12:20N 31°59' E 120°27'0 0.0
2017-Jun-04 11:53N 31°59' E 120°27'0 0.0
2017-Jun-04 11:23N 31°59' E 120°27'0 0.0
2017-Jun-04 10:59N 31°59' E 120°27'0 0.0
2017-Jun-04 10:20N 31°59' E 120°27'0 0.0
2017-Jun-04 09:53N 31°59' E 120°27'0 0.0
2017-Jun-04 09:26N 31°59' E 120°27'0 0.0
2017-Jun-04 08:59N 31°59' E 120°27'0 0.0
2017-Jun-04 08:23N 31°59' E 120°27'0 0.0
2017-Jun-04 07:59N 31°59' E 120°27'0 0.0
2017-Jun-04 07:29N 31°59' E 120°27'0 0.0
2017-Jun-04 06:59N 31°59' E 120°27'0 0.0
2017-Jun-04 06:29N 31°59' E 120°27'0 0.0
2017-Jun-04 05:56N 31°59' E 120°27'0 0.0
2017-Jun-04 05:08N 31°59' E 120°27'0 0.0
2017-Jun-04 04:59N 31°59' E 120°27'0 0.0
2017-Jun-04 04:20N 31°59' E 120°27'0 0.0
2017-Jun-04 04:00N 31°59' E 120°27'1 1.9
2017-Jun-04 03:28N 31°60' E 120°27'4 5.4
2017-Jun-04 02:41N 32°02' E 120°32'32 9.4
2017-Jun-03 23:16N 31°46' E 121°04'311.6
2017-Jun-03 23:00N 31°44' E 121°07'611.6
2017-Jun-03 22:30N 31°40' E 121°12'511.0
2017-Jun-03 22:00N 31°37' E 121°17'2 3.4
2017-Jun-03 21:29N 31°36' E 121°19'0 0.0
2017-Jun-03 20:59N 31°36' E 121°19'0 0.0
2017-Jun-03 20:29N 31°36' E 121°19'0 0.0
2017-Jun-03 19:59N 31°36' E 121°19'0 0.0
2017-Jun-03 19:29N 31°36' E 121°19'0 0.0
2017-Jun-03 18:59N 31°36' E 121°19'0 0.0
2017-Jun-03 18:29N 31°36' E 121°19'0 0.0
2017-Jun-03 17:59N 31°36' E 121°19'0 0.0
2017-Jun-03 17:29N 31°36' E 121°19'0 0.0
2017-Jun-03 16:59N 31°36' E 121°19'0 0.0
2017-Jun-03 16:29N 31°36' E 121°19'0 0.3
2017-Jun-03 15:53N 31°36' E 121°19'1 2.5
2017-Jun-03 15:30N 31°35' E 121°19'5 9.2
2017-Jun-03 15:00N 31°32' E 121°22'10 9.8
2017-Jun-03 14:00N 31°25' E 121°31'5 9.5
2017-Jun-03 13:30N 31°23' E 121°36'510.5
2017-Jun-03 13:00N 31°20' E 121°41'5 9.9
2017-Jun-03 12:30N 31°18' E 121°47'5 9.9
2017-Jun-03 12:00N 31°16' E 121°52'610.0
2017-Jun-03 11:27N 31°15' E 121°58'510.3
2017-Jun-03 11:00N 31°14' E 122°03'510.0
2017-Jun-03 10:30N 31°12' E 122°09'611.8
2017-Jun-03 10:00N 31°09' E 122°14'612.0
2017-Jun-03 09:30N 31°06' E 122°21'5 9.6
2017-Jun-03 09:00N 31°07' E 122°26'4 9.0
2017-Jun-03 08:30N 31°07' E 122°32'5 9.0
2017-Jun-03 08:00N 31°07' E 122°37'3 6.3
2017-Jun-03 07:30N 31°09' E 122°40'1 0.2
2017-Jun-03 04:46N 31°10' E 122°40'0 0.1
2017-Jun-03 03:46N 31°10' E 122°40'0 0.2
2017-Jun-03 03:28N 31°10' E 122°40'0 1.0
2017-Jun-03 03:00N 31°10' E 122°41'3 4.7
2017-Jun-03 02:28N 31°09' E 122°44'3 6.9
2017-Jun-03 02:00N 31°08' E 122°47'4 8.7
2017-Jun-03 01:30N 31°07' E 122°52'612.4
2017-Jun-03 01:00N 31°06' E 122°59'612.5
2017-Jun-03 00:30N 31°03' E 123°06'612.7
2017-Jun-03 00:00N 30°59' E 123°12'612.8
2017-Jun-02 23:30N 30°53' E 123°14'712.9
2017-Jun-02 23:00N 30°46' E 123°15'613.0
2017-Jun-02 22:30N 30°40' E 123°17'713.2
2017-Jun-02 22:00N 30°34' E 123°18'713.3
2017-Jun-02 21:30N 30°27' E 123°20'2312.5
2017-Jun-02 19:38N 30°07' E 123°08'213.0
2017-Jun-02 19:29N 30°05' E 123°06'613.0
2017-Jun-02 18:59N 29°60' E 123°02'612.8
2017-Jun-02 18:30N 29°54' E 122°58'52 8.5
2017-Jun-02 12:23N 29°59' E 121°59'  
2017-May-30 09:01N 22°49' E 119°54'111.5
2017-May-30 08:57N 22°48' E 119°54'511.8
2017-May-30 08:30N 22°43' E 119°54'713.3
2017-May-30 08:00N 22°36' E 119°53'713.9
2017-May-30 07:30N 22°29' E 119°52'714.3
2017-May-30 06:59N 22°23' E 119°48'  
Track history (hours):
 
Tides and Currents Weather Stations Pressure Air Temp Water Temp Dewpoint Dewpoint Depression Visibility Wind Speed Wind Dir Waves Ship Positions

Thamesteel1

Last reported at 2017-Jun-08 10:16 UTC. Time now 2017-Jun-24 12:08 UTC.
Position N 31°26' E 121°30'.
Warning: this ship's position is 16 days out of date.

Length 89 m; draft 4.8 m.

Type: Cargo ship. MMSI: 538003096.

Date/timePositionNaut miles runAvg speedWind from/ knotsBaromVisibWave heightAir tempDewpointWater temp
2017-Jun-08 10:16N 31°26' E 121°30'2 5.8
2017-Jun-08 10:00N 31°27' E 121°28'510.4
2017-Jun-08 09:30N 31°31' E 121°24'611.8
2017-Jun-08 09:00N 31°34' E 121°18'4 7.4
2017-Jun-08 08:30N 31°37' E 121°16'0 0.1
2017-Jun-08 07:59N 31°37' E 121°16'0 0.2
2017-Jun-08 07:20N 31°38' E 121°16'0 0.3
2017-Jun-08 06:50N 31°38' E 121°16'0 1.0
2017-Jun-08 06:30N 31°38' E 121°16'510.2
2017-Jun-08 06:00N 31°41' E 121°11'5 9.6
2017-Jun-08 05:30N 31°44' E 121°06'610.2
2017-Jun-08 04:56N 31°47' E 121°00'4 8.2
2017-Jun-08 04:27N 31°47' E 120°56'5 9.4
2017-Jun-08 03:57N 31°52' E 120°53'1810.6
2017-Jun-08 02:15N 32°00' E 120°35'312.2
2017-Jun-08 02:01N 32°01' E 120°32'4 8.0
2017-Jun-08 01:30N 31°60' E 120°27'1 2.1
2017-Jun-08 00:59N 31°59' E 120°27'0 0.0
2017-Jun-08 00:29N 31°59' E 120°27'0 0.0
2017-Jun-07 23:59N 31°59' E 120°27'0 0.0
2017-Jun-07 23:29N 31°59' E 120°27'0 0.0
2017-Jun-07 22:59N 31°59' E 120°27'0 0.0
2017-Jun-07 22:29N 31°59' E 120°27'0 0.0
2017-Jun-07 21:59N 31°59' E 120°27'0 0.0
2017-Jun-07 21:26N 31°59' E 120°27'0 0.0
2017-Jun-07 20:56N 31°59' E 120°27'0 0.0
2017-Jun-07 20:26N 31°59' E 120°27'0 0.0
2017-Jun-07 19:59N 31°59' E 120°27'0 0.0
2017-Jun-07 19:29N 31°59' E 120°27'0 0.0
2017-Jun-07 18:59N 31°59' E 120°27'0 0.0
2017-Jun-07 18:26N 31°59' E 120°27'0 0.0
2017-Jun-07 17:53N 31°59' E 120°27'0 0.0
2017-Jun-07 17:29N 31°59' E 120°27'0 0.0
2017-Jun-07 16:56N 31°59' E 120°27'0 0.0
2017-Jun-07 16:26N 31°59' E 120°27'0 0.0
2017-Jun-07 15:56N 31°59' E 120°27'0 0.0
2017-Jun-07 15:26N 31°59' E 120°27'0 0.0
2017-Jun-07 14:59N 31°59' E 120°27'0 0.0
2017-Jun-07 13:56N 31°59' E 120°27'0 0.0
2017-Jun-07 13:29N 31°59' E 120°27'0 0.0
2017-Jun-07 12:59N 31°59' E 120°27'0 0.0
2017-Jun-07 12:29N 31°59' E 120°27'0 0.0
2017-Jun-07 11:59N 31°59' E 120°27'0 0.0
2017-Jun-07 11:26N 31°59' E 120°27'0 0.0
2017-Jun-07 10:59N 31°59' E 120°27'0 0.0
2017-Jun-07 10:29N 31°59' E 120°27'0 0.0
2017-Jun-07 09:56N 31°59' E 120°27'0 0.0
2017-Jun-07 09:26N 31°59' E 120°27'0 0.0
2017-Jun-07 08:59N 31°59' E 120°27'0 0.0
2017-Jun-07 08:26N 31°59' E 120°27'0 0.0
2017-Jun-07 07:59N 31°59' E 120°27'0 0.0
2017-Jun-07 07:26N 31°59' E 120°27'0 0.0
2017-Jun-07 06:59N 31°59' E 120°27'0 0.0
2017-Jun-07 06:23N 31°59' E 120°27'0 0.0
2017-Jun-07 05:56N 31°59' E 120°27'0 0.0
2017-Jun-07 05:29N 31°59' E 120°27'0 0.0
2017-Jun-07 04:59N 31°59' E 120°27'0 0.0
2017-Jun-07 04:26N 31°59' E 120°27'0 0.0
2017-Jun-07 03:59N 31°59' E 120°27'0 0.0
2017-Jun-07 03:29N 31°59' E 120°27'0 0.0
2017-Jun-07 02:59N 31°59' E 120°27'0 0.0
2017-Jun-07 02:29N 31°59' E 120°27'0 0.0
2017-Jun-07 01:59N 31°59' E 120°27'0 0.0
2017-Jun-07 01:29N 31°59' E 120°27'0 0.0
2017-Jun-07 00:59N 31°59' E 120°27'0 0.0
2017-Jun-07 00:26N 31°59' E 120°27'0 0.0
2017-Jun-06 23:56N 31°59' E 120°27'0 0.0
2017-Jun-06 23:26N 31°59' E 120°27'0 0.0
2017-Jun-06 22:56N 31°59' E 120°27'0 0.0
2017-Jun-06 22:29N 31°59' E 120°27'0 0.0
2017-Jun-06 21:59N 31°59' E 120°27'0 0.0
2017-Jun-06 21:29N 31°59' E 120°27'0 0.0
2017-Jun-06 20:59N 31°59' E 120°27'0 0.0
2017-Jun-06 20:29N 31°59' E 120°27'0 0.0
2017-Jun-06 19:59N 31°59' E 120°27'0 0.0
2017-Jun-06 19:29N 31°59' E 120°27'0 0.0
2017-Jun-06 18:59N 31°59' E 120°27'0 0.0
2017-Jun-06 18:29N 31°59' E 120°27'0 0.0
2017-Jun-06 17:59N 31°59' E 120°27'0 0.0
2017-Jun-06 17:29N 31°59' E 120°27'0 0.0
2017-Jun-06 16:59N 31°59' E 120°27'0 0.0
2017-Jun-06 16:29N 31°59' E 120°27'0 0.0
2017-Jun-06 15:59N 31°59' E 120°27'0 0.0
2017-Jun-06 15:29N 31°59' E 120°27'0 0.0
2017-Jun-06 14:59N 31°59' E 120°27'0 0.0
2017-Jun-06 14:20N 31°59' E 120°27'0 0.0
2017-Jun-06 13:29N 31°59' E 120°27'0 0.0
2017-Jun-06 12:59N 31°59' E 120°27'0 0.0
2017-Jun-06 12:29N 31°59' E 120°27'0 0.0
2017-Jun-06 11:59N 31°59' E 120°27'0 0.0
2017-Jun-06 11:29N 31°59' E 120°27'0 0.0
2017-Jun-06 10:59N 31°59' E 120°27'0 0.0
2017-Jun-06 10:29N 31°59' E 120°27'0 0.0
2017-Jun-06 09:59N 31°59' E 120°27'0 0.0
2017-Jun-06 09:29N 31°59' E 120°27'0 0.0
2017-Jun-06 08:59N 31°59' E 120°27'0 0.0
2017-Jun-06 08:26N 31°59' E 120°27'0 0.0
2017-Jun-06 07:59N 31°59' E 120°27'0 0.0
2017-Jun-06 07:29N 31°59' E 120°27'0 0.0
2017-Jun-06 06:59N 31°59' E 120°27'0 0.0
2017-Jun-06 06:26N 31°59' E 120°27'0 0.0
2017-Jun-06 05:59N 31°59' E 120°27'0 0.0
2017-Jun-06 05:26N 31°59' E 120°27'0 0.0
2017-Jun-06 04:59N 31°59' E 120°27'0 0.0
2017-Jun-06 04:29N 31°59' E 120°27'0 0.0
2017-Jun-06 03:59N 31°59' E 120°27'0 0.0
2017-Jun-06 03:29N 31°59' E 120°27'0 0.0
2017-Jun-06 02:59N 31°59' E 120°27'0 0.0
2017-Jun-06 02:29N 31°59' E 120°27'0 0.0
2017-Jun-06 01:59N 31°59' E 120°27'0 0.0
2017-Jun-06 01:29N 31°59' E 120°27'0 0.0
2017-Jun-06 00:59N 31°59' E 120°27'0 0.0
2017-Jun-06 00:29N 31°59' E 120°27'0 0.0
2017-Jun-05 23:59N 31°59' E 120°27'0 0.0
2017-Jun-05 23:29N 31°59' E 120°27'0 0.0
2017-Jun-05 22:59N 31°59' E 120°27'0 0.0
2017-Jun-05 22:29N 31°59' E 120°27'0 0.0
2017-Jun-05 21:59N 31°59' E 120°27'0 0.0
2017-Jun-05 21:29N 31°59' E 120°27'0 0.0
2017-Jun-05 20:59N 31°59' E 120°27'0 0.0
2017-Jun-05 20:29N 31°59' E 120°27'0 0.0
2017-Jun-05 19:59N 31°59' E 120°27'0 0.0
2017-Jun-05 19:29N 31°59' E 120°27'0 0.0
2017-Jun-05 18:59N 31°59' E 120°27'0 0.0
2017-Jun-05 18:29N 31°59' E 120°27'0 0.0
2017-Jun-05 17:59N 31°59' E 120°27'0 0.0
2017-Jun-05 17:29N 31°59' E 120°27'0 0.0
2017-Jun-05 16:56N 31°59' E 120°27'0 0.0
2017-Jun-05 16:26N 31°59' E 120°27'0 0.0
2017-Jun-05 15:56N 31°59' E 120°27'0 0.0
2017-Jun-05 15:29N 31°59' E 120°27'0 0.0
2017-Jun-05 14:59N 31°59' E 120°27'0 0.0
2017-Jun-05 14:29N 31°59' E 120°27'0 0.0
2017-Jun-05 13:29N 31°59' E 120°27'0 0.0
2017-Jun-05 12:59N 31°59' E 120°27'0 0.0
2017-Jun-05 12:29N 31°59' E 120°27'0 0.0
2017-Jun-05 11:59N 31°59' E 120°27'0 0.0
2017-Jun-05 11:29N 31°59' E 120°27'0 0.0
2017-Jun-05 10:59N 31°59' E 120°27'0 0.0
2017-Jun-05 10:29N 31°59' E 120°27'0 0.0
2017-Jun-05 09:56N 31°59' E 120°27'0 0.0
2017-Jun-05 09:29N 31°59' E 120°27'0 0.0
2017-Jun-05 08:59N 31°59' E 120°27'0 0.0
2017-Jun-05 08:26N 31°59' E 120°27'0 0.0
2017-Jun-05 07:56N 31°59' E 120°27'0 0.0
2017-Jun-05 07:26N 31°59' E 120°27'0 0.0
2017-Jun-05 06:56N 31°59' E 120°27'0 0.0
2017-Jun-05 06:29N 31°59' E 120°27'0 0.0
2017-Jun-05 05:56N 31°59' E 120°27'0 0.0
2017-Jun-05 05:20N 31°59' E 120°27'0 0.0
2017-Jun-05 04:59N 31°59' E 120°27'0 0.0
2017-Jun-05 04:29N 31°59' E 120°27'0 0.0
2017-Jun-05 03:47N 31°59' E 120°27'0 0.0
2017-Jun-05 03:29N 31°59' E 120°27'0 0.0
2017-Jun-05 02:56N 31°59' E 120°27'0 0.0
2017-Jun-05 02:29N 31°59' E 120°27'0 0.0
2017-Jun-05 01:56N 31°59' E 120°27'0 0.0
2017-Jun-05 01:26N 31°59' E 120°27'0 0.0
2017-Jun-05 00:56N 31°59' E 120°27'0 0.0
2017-Jun-05 00:29N 31°59' E 120°27'0 0.0
2017-Jun-04 23:50N 31°59' E 120°27'0 0.0
2017-Jun-04 23:29N 31°59' E 120°27'0 0.0
2017-Jun-04 22:56N 31°59' E 120°27'0 0.0
2017-Jun-04 22:26N 31°59' E 120°27'0 0.0
2017-Jun-04 21:59N 31°59' E 120°27'0 0.0
2017-Jun-04 21:26N 31°59' E 120°27'0 0.0
2017-Jun-04 20:59N 31°59' E 120°27'0 0.0
2017-Jun-04 20:29N 31°59' E 120°27'0 0.0
2017-Jun-04 19:59N 31°59' E 120°27'0 0.0
2017-Jun-04 19:26N 31°59' E 120°27'0 0.0
2017-Jun-04 18:59N 31°59' E 120°27'0 0.0
2017-Jun-04 18:29N 31°59' E 120°27'0 0.0
2017-Jun-04 17:59N 31°59' E 120°27'0 0.0
2017-Jun-04 17:26N 31°59' E 120°27'0 0.0
2017-Jun-04 16:50N 31°59' E 120°27'0 0.0
2017-Jun-04 16:23N 31°59' E 120°27'0 0.0
2017-Jun-04 15:44N 31°59' E 120°27'0 0.0
2017-Jun-04 15:26N 31°59' E 120°27'0 0.0
2017-Jun-04 14:50N 31°59' E 120°27'0 0.0
2017-Jun-04 13:59N 31°59' E 120°27'0 0.0
2017-Jun-04 13:26N 31°59' E 120°27'0 0.0
2017-Jun-04 12:53N 31°59' E 120°27'0 0.0
2017-Jun-04 12:20N 31°59' E 120°27'0 0.0
2017-Jun-04 11:53N 31°59' E 120°27'0 0.0
2017-Jun-04 11:23N 31°59' E 120°27'0 0.0
2017-Jun-04 10:59N 31°59' E 120°27'0 0.0
2017-Jun-04 10:20N 31°59' E 120°27'0 0.0
2017-Jun-04 09:53N 31°59' E 120°27'0 0.0
2017-Jun-04 09:26N 31°59' E 120°27'0 0.0
2017-Jun-04 08:59N 31°59' E 120°27'0 0.0
2017-Jun-04 08:23N 31°59' E 120°27'0 0.0
2017-Jun-04 07:59N 31°59' E 120°27'0 0.0
2017-Jun-04 07:29N 31°59' E 120°27'0 0.0
2017-Jun-04 06:59N 31°59' E 120°27'0 0.0
2017-Jun-04 06:29N 31°59' E 120°27'0 0.0
2017-Jun-04 05:56N 31°59' E 120°27'0 0.0
2017-Jun-04 05:08N 31°59' E 120°27'0 0.0
2017-Jun-04 04:59N 31°59' E 120°27'0 0.0
2017-Jun-04 04:20N 31°59' E 120°27'0 0.0
2017-Jun-04 04:00N 31°59' E 120°27'1 1.9
2017-Jun-04 03:28N 31°60' E 120°27'4 5.4
2017-Jun-04 02:41N 32°02' E 120°32'32 9.4
2017-Jun-03 23:16N 31°46' E 121°04'311.6
2017-Jun-03 23:00N 31°44' E 121°07'611.6
2017-Jun-03 22:30N 31°40' E 121°12'511.0
2017-Jun-03 22:00N 31°37' E 121°17'2 3.4
2017-Jun-03 21:29N 31°36' E 121°19'0 0.0
2017-Jun-03 20:59N 31°36' E 121°19'0 0.0
2017-Jun-03 20:29N 31°36' E 121°19'0 0.0
2017-Jun-03 19:59N 31°36' E 121°19'0 0.0
2017-Jun-03 19:29N 31°36' E 121°19'0 0.0
2017-Jun-03 18:59N 31°36' E 121°19'0 0.0
2017-Jun-03 18:29N 31°36' E 121°19'0 0.0
2017-Jun-03 17:59N 31°36' E 121°19'0 0.0
2017-Jun-03 17:29N 31°36' E 121°19'0 0.0
2017-Jun-03 16:59N 31°36' E 121°19'0 0.0
2017-Jun-03 16:29N 31°36' E 121°19'0 0.3
2017-Jun-03 15:53N 31°36' E 121°19'1 2.5
2017-Jun-03 15:30N 31°35' E 121°19'5 9.2
2017-Jun-03 15:00N 31°32' E 121°22'10 9.8
2017-Jun-03 14:00N 31°25' E 121°31'5 9.5
2017-Jun-03 13:30N 31°23' E 121°36'510.5
2017-Jun-03 13:00N 31°20' E 121°41'5 9.9
2017-Jun-03 12:30N 31°18' E 121°47'5 9.9
2017-Jun-03 12:00N 31°16' E 121°52'610.0
2017-Jun-03 11:27N 31°15' E 121°58'510.3
2017-Jun-03 11:00N 31°14' E 122°03'510.0
2017-Jun-03 10:30N 31°12' E 122°09'611.8
2017-Jun-03 10:00N 31°09' E 122°14'612.0
2017-Jun-03 09:30N 31°06' E 122°21'5 9.6
2017-Jun-03 09:00N 31°07' E 122°26'4 9.0
2017-Jun-03 08:30N 31°07' E 122°32'5 9.0
2017-Jun-03 08:00N 31°07' E 122°37'3 6.3
2017-Jun-03 07:30N 31°09' E 122°40'1 0.2
2017-Jun-03 04:46N 31°10' E 122°40'0 0.1
2017-Jun-03 03:46N 31°10' E 122°40'0 0.2
2017-Jun-03 03:28N 31°10' E 122°40'0 1.0
2017-Jun-03 03:00N 31°10' E 122°41'3 4.7
2017-Jun-03 02:28N 31°09' E 122°44'3 6.9
2017-Jun-03 02:00N 31°08' E 122°47'4 8.7
2017-Jun-03 01:30N 31°07' E 122°52'612.4
2017-Jun-03 01:00N 31°06' E 122°59'612.5
2017-Jun-03 00:30N 31°03' E 123°06'612.7
2017-Jun-03 00:00N 30°59' E 123°12'612.8
2017-Jun-02 23:30N 30°53' E 123°14'712.9
2017-Jun-02 23:00N 30°46' E 123°15'613.0
2017-Jun-02 22:30N 30°40' E 123°17'713.2
2017-Jun-02 22:00N 30°34' E 123°18'713.3
2017-Jun-02 21:30N 30°27' E 123°20'2312.5
2017-Jun-02 19:38N 30°07' E 123°08'213.0
2017-Jun-02 19:29N 30°05' E 123°06'613.0
2017-Jun-02 18:59N 29°60' E 123°02'612.8
2017-Jun-02 18:30N 29°54' E 122°58'52 8.5
2017-Jun-02 12:23N 29°59' E 121°59'  
2017-May-30 09:01N 22°49' E 119°54'111.5
2017-May-30 08:57N 22°48' E 119°54'511.8
2017-May-30 08:30N 22°43' E 119°54'713.3
2017-May-30 08:00N 22°36' E 119°53'713.9
2017-May-30 07:30N 22°29' E 119°52'714.3
2017-May-30 06:59N 22°23' E 119°48'  

Dump ship's entire track history